createdAt,value
2022-08-19T00:00:51.016Z,61.95
2022-08-19T00:03:17.380Z,62.47
2022-08-19T00:05:43.739Z,62.94
2022-08-19T00:08:10.134Z,63.70
2022-08-19T00:10:36.521Z,64.03
2022-08-19T00:13:02.893Z,64.53
2022-08-19T00:15:29.305Z,64.71
2022-08-19T00:17:55.802Z,64.97
2022-08-19T00:20:22.166Z,65.33
2022-08-19T00:22:48.708Z,65.10
2022-08-19T00:25:15.030Z,65.59
2022-08-19T00:27:41.397Z,65.98
2022-08-19T00:30:07.796Z,66.28
2022-08-19T00:32:34.187Z,66.25
2022-08-19T00:35:00.547Z,65.90
2022-08-19T00:37:26.958Z,66.15
2022-08-19T00:39:53.375Z,65.79
2022-08-19T00:42:19.740Z,65.78
2022-08-19T00:44:46.101Z,65.87
2022-08-19T00:47:14.373Z,64.95
2022-08-19T00:49:39.143Z,65.47
2022-08-19T00:52:05.670Z,65.87
2022-08-19T00:54:32.083Z,65.57
2022-08-19T00:56:58.526Z,65.82
2022-08-19T00:59:56.244Z,65.85
2022-08-19T01:01:51.291Z,66.26
2022-08-19T01:04:17.631Z,66.52
2022-08-19T01:06:44.053Z,66.94
2022-08-19T01:09:10.420Z,67.36
2022-08-19T01:11:36.789Z,68.13
2022-08-19T01:14:03.181Z,68.81
2022-08-19T01:16:29.581Z,69.59
2022-08-19T01:18:56.012Z,69.65
2022-08-19T01:21:22.375Z,69.66
2022-08-19T01:23:48.768Z,69.79
2022-08-19T01:26:15.158Z,69.67
2022-08-19T01:28:42.314Z,69.68
2022-08-19T01:31:08.347Z,70.02
2022-08-19T01:33:34.326Z,70.67
2022-08-19T01:36:00.729Z,71.19
2022-08-19T01:38:27.083Z,71.42
2022-08-19T01:40:53.473Z,70.98
2022-08-19T01:43:19.948Z,71.11
2022-08-19T01:45:46.303Z,71.30
2022-08-19T01:48:12.658Z,70.88
2022-08-19T01:50:39.065Z,70.61
2022-08-19T01:53:06.887Z,70.62
2022-08-19T01:55:31.867Z,70.27
2022-08-19T01:57:58.229Z,69.69
2022-08-19T02:00:24.614Z,69.68
2022-08-19T02:02:50.987Z,69.32
2022-08-19T02:05:17.378Z,69.10
2022-08-19T02:07:43.737Z,69.24
2022-08-19T02:10:12.556Z,69.51
2022-08-19T02:12:36.614Z,69.23
2022-08-19T02:15:02.974Z,69.31
2022-08-19T02:17:29.358Z,70.06
2022-08-19T02:19:55.815Z,70.63
2022-08-19T02:22:22.247Z,70.16
2022-08-19T02:24:48.604Z,70.29
2022-08-19T02:27:15.011Z,70.69
2022-08-19T02:29:41.376Z,70.45
2022-08-19T02:32:07.781Z,70.29
2022-08-19T02:34:34.152Z,70.30
2022-08-19T02:37:03.608Z,70.87
2022-08-19T02:39:26.888Z,70.85
2022-08-19T02:41:53.303Z,71.27
2022-08-19T02:44:31.052Z,71.56
2022-08-19T02:46:46.177Z,71.48
2022-08-19T02:49:12.561Z,72.08
2022-08-19T02:51:39.041Z,72.02
2022-08-19T02:54:05.468Z,72.02
2022-08-19T02:56:31.902Z,72.28
2022-08-19T02:58:58.259Z,72.95
2022-08-19T03:01:24.679Z,73.60
2022-08-19T03:03:51.027Z,74.01
2022-08-19T03:06:17.400Z,74.65
2022-08-19T03:08:43.785Z,74.46
2022-08-19T03:11:10.174Z,74.79
2022-08-19T03:13:36.539Z,75.00
2022-08-19T03:16:02.928Z,75.31
2022-08-19T03:18:29.284Z,74.97
2022-08-19T03:20:55.720Z,74.60
2022-08-19T03:23:22.107Z,74.72
2022-08-19T03:25:58.195Z,74.84
2022-08-19T03:28:14.924Z,75.01
2022-08-19T03:30:41.418Z,75.20
2022-08-19T03:33:07.634Z,75.58
2022-08-19T03:35:34.043Z,75.18
2022-08-19T03:38:00.422Z,74.58
2022-08-19T03:40:26.875Z,75.13
2022-08-19T03:42:53.299Z,75.92
2022-08-19T03:45:19.682Z,76.01
2022-08-19T03:47:46.057Z,75.69
2022-08-19T03:50:12.452Z,75.51
2022-08-19T03:52:38.939Z,75.97
2022-08-19T03:55:05.329Z,76.16
2022-08-19T03:57:32.278Z,76.06
2022-08-19T04:00:12.789Z,75.42
2022-08-19T04:02:24.423Z,75.31
2022-08-19T04:04:50.908Z,75.27
2022-08-19T04:07:17.331Z,75.45
2022-08-19T04:09:43.656Z,75.57
2022-08-19T04:12:10.079Z,75.23
2022-08-19T04:14:36.447Z,74.40
2022-08-19T04:17:02.830Z,73.82
2022-08-19T04:19:29.287Z,73.82
2022-08-19T04:21:55.661Z,73.63
2022-08-19T04:24:22.072Z,73.65
2022-08-19T04:26:48.455Z,72.90
2022-08-19T04:29:14.841Z,71.79
2022-08-19T04:31:41.209Z,70.88
2022-08-19T04:34:07.575Z,70.53
2022-08-19T04:36:34.018Z,69.65
2022-08-19T04:39:00.399Z,68.92
2022-08-19T04:41:26.787Z,67.64
2022-08-19T04:43:53.149Z,67.16
2022-08-19T04:46:39.387Z,66.28
2022-08-19T04:48:49.639Z,65.17
2022-08-19T04:51:12.295Z,62.65
2022-08-19T04:53:38.667Z,60.52
2022-08-19T04:56:05.094Z,57.96
2022-08-19T04:58:31.542Z,57.30
2022-08-19T05:00:57.928Z,55.42
2022-08-19T05:03:27.599Z,54.85
2022-08-19T05:05:50.810Z,56.06
2022-08-19T05:08:17.200Z,56.11
2022-08-19T05:10:43.602Z,53.98
2022-08-19T05:13:09.965Z,53.16
2022-08-19T05:15:36.327Z,51.65
2022-08-19T05:18:02.698Z,50.92
2022-08-19T05:20:29.078Z,48.84
2022-08-19T05:22:55.687Z,48.05
2022-08-19T05:25:21.961Z,48.66
2022-08-19T05:27:48.339Z,48.29
2022-08-19T05:30:14.724Z,47.28
2022-08-19T05:32:41.117Z,46.68
2022-08-19T05:35:07.485Z,46.04
2022-08-19T05:37:33.853Z,46.25
2022-08-19T05:40:00.346Z,46.72
2022-08-19T05:42:26.585Z,47.42
2022-08-19T05:44:52.970Z,47.25
2022-08-19T05:47:19.333Z,46.26
2022-08-19T05:49:45.783Z,47.07
2022-08-19T05:52:12.214Z,47.69
2022-08-19T05:54:38.571Z,46.66
2022-08-19T05:57:04.939Z,45.96
2022-08-19T05:59:31.343Z,46.56
2022-08-19T06:01:57.716Z,44.68
2022-08-19T06:04:24.084Z,44.88
2022-08-19T06:06:50.507Z,44.50
2022-08-19T06:09:16.889Z,45.06
2022-08-19T06:11:43.270Z,45.67
2022-08-19T06:14:09.643Z,45.48
2022-08-19T06:16:36.151Z,45.44
2022-08-19T06:19:02.545Z,45.01
2022-08-19T06:21:29.003Z,44.55
2022-08-19T06:23:55.360Z,44.14
2022-08-19T06:26:21.726Z,43.60
2022-08-19T06:28:48.167Z,43.86
2022-08-19T06:31:14.539Z,43.21
2022-08-19T06:33:40.899Z,42.30
2022-08-19T06:36:07.317Z,42.21
2022-08-19T06:38:33.695Z,41.59
2022-08-19T06:41:00.058Z,41.21
2022-08-19T06:43:28.203Z,40.71
2022-08-19T06:45:53.426Z,40.66
2022-08-19T06:48:19.291Z,40.31
2022-08-19T06:50:45.748Z,39.77
2022-08-19T06:53:12.108Z,40.48
2022-08-19T06:55:38.487Z,39.55
2022-08-19T06:58:04.967Z,39.97
2022-08-19T07:03:01.847Z,38.51
2022-08-19T07:05:24.088Z,38.69
2022-08-19T07:07:51.072Z,39.53
2022-08-19T07:10:16.815Z,39.24
2022-08-19T07:12:43.219Z,39.03
2022-08-19T07:15:09.626Z,39.49
2022-08-19T07:17:35.959Z,39.04
2022-08-19T07:20:05.473Z,38.90
2022-08-19T07:22:28.757Z,39.32
2022-08-19T07:24:55.239Z,39.41
2022-08-19T07:27:24.393Z,38.73
2022-08-19T07:29:48.199Z,36.91
2022-08-19T07:32:14.559Z,36.37
2022-08-19T07:34:40.944Z,36.09
2022-08-19T07:37:07.342Z,35.56
2022-08-19T07:39:33.745Z,35.76
2022-08-19T07:42:00.073Z,34.70
2022-08-19T07:44:26.451Z,35.18
2022-08-19T07:46:53.335Z,34.81
2022-08-19T07:49:19.257Z,34.82
2022-08-19T07:51:45.654Z,34.42
2022-08-19T07:54:12.039Z,33.67
2022-08-19T07:56:38.420Z,33.30
2022-08-19T07:59:04.829Z,33.59
2022-08-19T08:01:31.262Z,33.66
2022-08-19T08:03:57.600Z,33.34
2022-08-19T08:06:24.089Z,32.93
2022-08-19T08:08:50.520Z,32.88
2022-08-19T08:11:16.892Z,32.69
2022-08-19T08:13:43.319Z,31.53
2022-08-19T08:16:10.291Z,31.58
2022-08-19T08:18:36.376Z,32.21
2022-08-19T08:21:02.880Z,32.07
2022-08-19T08:23:29.272Z,31.60
2022-08-19T08:25:55.654Z,31.78
2022-08-19T08:28:22.091Z,31.35
2022-08-19T08:30:49.109Z,31.34
2022-08-19T08:35:41.280Z,29.90
2022-08-19T08:38:07.641Z,30.01
2022-08-19T08:40:34.012Z,30.82
2022-08-19T08:45:26.881Z,29.66
2022-08-19T08:47:53.379Z,29.55
2022-08-19T08:50:19.646Z,29.43
2022-08-19T08:52:46.076Z,29.52
2022-08-19T08:55:12.440Z,28.97
2022-08-19T08:57:46.688Z,28.87
2022-08-19T09:00:05.172Z,28.50
2022-08-19T09:02:31.544Z,27.67
2022-08-19T09:04:57.935Z,27.42
2022-08-19T09:07:35.979Z,26.90
2022-08-19T09:09:50.734Z,27.58
2022-08-19T09:12:17.105Z,28.10
2022-08-19T09:14:52.065Z,27.28
2022-08-19T09:17:10.023Z,26.90
2022-08-19T09:19:36.383Z,26.77
2022-08-19T09:22:02.763Z,25.83
2022-08-19T09:24:31.219Z,25.05
2022-08-19T09:26:55.550Z,25.64
2022-08-19T09:29:22.681Z,25.16
2022-08-19T09:31:48.281Z,24.55
2022-08-19T09:34:21.002Z,24.62
2022-08-19T09:36:41.080Z,24.92
2022-08-19T09:39:16.192Z,24.12
2022-08-19T09:41:33.809Z,23.55
2022-08-19T09:44:00.181Z,23.04
2022-08-19T09:46:26.717Z,22.63
2022-08-19T09:48:53.106Z,23.59
2022-08-19T09:51:19.475Z,23.18
2022-08-19T09:53:45.899Z,22.83
2022-08-19T09:56:12.293Z,21.84
2022-08-19T09:58:39.672Z,21.24
2022-08-19T10:01:06.115Z,21.21
2022-08-19T10:03:32.440Z,21.25
2022-08-19T10:05:58.832Z,21.40
2022-08-19T10:08:26.408Z,21.92
2022-08-19T10:10:51.641Z,21.28
2022-08-19T10:13:18.023Z,21.12
2022-08-19T10:15:47.571Z,20.94
2022-08-19T10:18:10.796Z,21.33
2022-08-19T10:20:37.166Z,21.25
2022-08-19T10:23:03.561Z,22.05
2022-08-19T10:25:29.955Z,22.78
2022-08-19T10:27:56.348Z,22.54
2022-08-19T10:30:22.728Z,22.22
2022-08-19T10:32:49.091Z,21.75
2022-08-19T10:35:16.277Z,22.61
2022-08-19T10:37:51.896Z,22.09
2022-08-19T10:40:08.312Z,21.59
2022-08-19T10:42:34.589Z,21.50
2022-08-19T10:45:00.965Z,22.36
2022-08-19T10:47:31.869Z,22.29
2022-08-19T10:49:53.775Z,22.00
2022-08-19T10:52:20.707Z,22.06
2022-08-19T10:54:46.503Z,22.08
2022-08-19T10:57:12.904Z,21.87
2022-08-19T10:59:39.285Z,22.06
2022-08-19T11:02:05.672Z,22.37
2022-08-19T11:04:32.056Z,21.86
2022-08-19T11:06:58.491Z,21.87
2022-08-19T11:09:24.912Z,22.06
2022-08-19T11:11:51.240Z,22.45
2022-08-19T11:14:17.645Z,22.81
2022-08-19T11:16:44.008Z,22.89
2022-08-19T11:19:10.399Z,23.10
2022-08-19T11:21:36.802Z,22.98
2022-08-19T11:24:03.172Z,22.93
2022-08-19T11:26:29.559Z,23.04
2022-08-19T11:28:55.986Z,23.09
2022-08-19T11:31:22.361Z,23.24
2022-08-19T11:33:48.849Z,24.00
2022-08-19T11:36:15.361Z,23.86
2022-08-19T11:38:41.609Z,23.42
2022-08-19T11:41:08.042Z,23.25
2022-08-19T11:43:37.293Z,23.63
2022-08-19T11:46:00.921Z,23.54
2022-08-19T11:48:27.308Z,23.29
2022-08-19T11:50:53.690Z,23.56
2022-08-19T11:53:20.067Z,23.02
2022-08-19T11:55:46.431Z,23.05
2022-08-19T11:58:18.787Z,23.30
2022-08-19T12:00:39.266Z,23.63
2022-08-19T12:03:05.633Z,23.63
2022-08-19T12:05:32.015Z,23.18
2022-08-19T12:07:58.385Z,22.47
2022-08-19T12:10:26.510Z,22.86
2022-08-19T12:12:53.821Z,22.46
2022-08-19T12:15:17.598Z,22.43
2022-08-19T12:17:43.963Z,23.29
2022-08-19T12:20:10.361Z,23.07
2022-08-19T12:22:36.784Z,23.36
2022-08-19T12:25:03.143Z,22.90
2022-08-19T12:27:40.521Z,22.62
2022-08-19T12:29:56.055Z,22.82
2022-08-19T12:32:22.441Z,23.07
2022-08-19T12:34:48.818Z,22.95
2022-08-19T12:37:15.229Z,23.35
2022-08-19T12:39:41.674Z,23.81
2022-08-19T12:42:07.969Z,24.31
2022-08-19T12:44:34.353Z,24.09
2022-08-19T12:47:00.916Z,23.64
2022-08-19T12:49:52.026Z,23.71
2022-08-19T12:51:53.522Z,22.96
2022-08-19T12:54:19.894Z,23.75
2022-08-19T12:56:46.274Z,23.84
2022-08-19T12:59:12.767Z,24.38
2022-08-19T13:01:39.168Z,24.23
2022-08-19T13:04:05.538Z,24.07
2022-08-19T13:06:31.938Z,24.00
2022-08-19T13:08:59.736Z,23.84
2022-08-19T13:11:24.743Z,24.16
2022-08-19T13:13:51.106Z,24.24
2022-08-19T13:16:17.503Z,24.14
2022-08-19T13:18:43.873Z,24.87
2022-08-19T13:21:10.280Z,25.06
2022-08-19T13:23:36.696Z,25.35
2022-08-19T13:26:03.059Z,25.71
2022-08-19T13:28:29.505Z,25.35
2022-08-19T13:30:55.846Z,25.52
2022-08-19T13:33:22.209Z,25.28
2022-08-19T13:35:48.607Z,25.42
2022-08-19T13:38:14.988Z,25.60
2022-08-19T13:40:41.451Z,25.50
2022-08-19T13:43:17.778Z,25.82
2022-08-19T13:45:34.130Z,25.86
2022-08-19T13:48:00.824Z,25.74
2022-08-19T13:50:26.962Z,25.97
2022-08-19T13:52:53.391Z,26.24
2022-08-19T13:55:25.034Z,26.01
2022-08-19T13:57:46.328Z,26.08
2022-08-19T14:00:12.691Z,26.14
2022-08-19T14:02:39.080Z,26.66
2022-08-19T14:05:05.465Z,26.50
2022-08-19T14:07:32.155Z,26.36
2022-08-19T14:09:58.511Z,26.54
2022-08-19T14:12:28.339Z,26.53
2022-08-19T14:14:51.584Z,26.76
2022-08-19T14:17:18.223Z,26.16
2022-08-19T14:19:44.562Z,26.39
2022-08-19T14:22:10.922Z,26.57
2022-08-19T14:24:37.323Z,26.78
2022-08-19T14:27:03.712Z,26.72
2022-08-19T14:29:30.066Z,26.95
2022-08-19T14:31:56.462Z,27.08
2022-08-19T14:34:22.830Z,27.04
2022-08-19T14:36:49.212Z,26.75
2022-08-19T14:39:15.610Z,26.95
2022-08-19T14:41:41.992Z,27.24
2022-08-19T14:44:08.373Z,27.17
2022-08-19T14:46:34.804Z,27.36
2022-08-19T14:49:01.159Z,27.34
2022-08-19T14:51:27.569Z,27.46
2022-08-19T14:53:54.012Z,27.49
2022-08-19T14:56:20.697Z,27.46
2022-08-19T14:58:47.129Z,27.65
2022-08-19T15:01:13.504Z,27.81
2022-08-19T15:03:39.885Z,28.18
2022-08-19T15:06:06.263Z,28.05
2022-08-19T15:08:32.627Z,28.24
2022-08-19T15:10:59.001Z,28.47
2022-08-19T15:13:25.404Z,28.44
2022-08-19T15:15:51.777Z,28.29
2022-08-19T15:18:18.140Z,28.51
2022-08-19T15:20:44.513Z,28.50
2022-08-19T15:23:10.894Z,28.42
2022-08-19T15:25:37.280Z,28.47
2022-08-19T15:28:03.651Z,28.20
2022-08-19T15:30:30.040Z,28.34
2022-08-19T15:32:56.698Z,28.23
2022-08-19T15:35:23.066Z,28.14
2022-08-19T15:37:49.428Z,28.33
2022-08-19T15:40:15.866Z,28.18
2022-08-19T15:42:42.253Z,28.32
2022-08-19T15:45:08.613Z,28.00
2022-08-19T15:47:35.754Z,28.11
2022-08-19T15:50:01.401Z,28.28
2022-08-19T15:52:27.752Z,28.39
2022-08-19T15:54:54.143Z,28.48
2022-08-19T15:57:20.518Z,28.75
2022-08-19T15:59:47.768Z,28.56
2022-08-19T16:02:13.311Z,28.41
2022-08-19T16:04:39.687Z,28.63
2022-08-19T16:07:06.042Z,28.60
2022-08-19T16:09:32.410Z,28.96
2022-08-19T16:12:01.837Z,29.18
2022-08-19T16:14:25.235Z,29.38
2022-08-19T16:16:51.593Z,29.35
2022-08-19T16:19:17.981Z,29.40
2022-08-19T16:21:44.378Z,29.69
2022-08-19T16:24:10.764Z,29.80
2022-08-19T16:26:37.125Z,29.76
2022-08-19T16:29:03.548Z,29.74
2022-08-19T16:31:29.902Z,29.74
2022-08-19T16:33:56.265Z,29.78
2022-08-19T16:36:22.666Z,30.01
2022-08-19T16:38:49.086Z,30.23
2022-08-19T16:41:15.468Z,30.29
2022-08-19T16:43:41.865Z,30.48
2022-08-19T16:46:08.283Z,30.57
2022-08-19T16:48:34.667Z,30.74
2022-08-19T16:51:01.028Z,30.79
2022-08-19T16:53:29.188Z,31.01
2022-08-19T16:55:53.794Z,31.10
2022-08-19T16:58:20.160Z,31.24
2022-08-19T17:00:46.537Z,31.33
2022-08-19T17:03:15.125Z,31.60
2022-08-19T17:05:39.306Z,31.70
2022-08-19T17:08:05.693Z,31.84
2022-08-19T17:10:32.055Z,32.08
2022-08-19T17:12:58.541Z,32.15
2022-08-19T17:15:24.921Z,32.23
2022-08-19T17:17:51.356Z,32.42
2022-08-19T17:20:17.738Z,32.46
2022-08-19T17:22:44.120Z,32.63
2022-08-19T17:25:10.480Z,32.65
2022-08-19T17:27:36.873Z,32.81
2022-08-19T17:30:03.250Z,32.95
2022-08-19T17:32:29.617Z,33.39
2022-08-19T17:34:56.001Z,33.75
2022-08-19T17:37:22.458Z,33.43
2022-08-19T17:39:48.871Z,33.68
2022-08-19T17:42:15.190Z,33.70
2022-08-19T17:44:41.571Z,34.20
2022-08-19T17:47:07.947Z,34.54
2022-08-19T17:49:34.334Z,34.63
2022-08-19T17:52:00.732Z,34.60
2022-08-19T17:54:30.625Z,34.83
2022-08-19T17:56:53.490Z,35.03
2022-08-19T17:59:19.886Z,35.06
2022-08-19T18:01:53.171Z,35.15
2022-08-19T18:04:12.624Z,35.29
2022-08-19T18:06:39.026Z,36.16
2022-08-19T18:09:05.404Z,36.07
2022-08-19T18:11:31.777Z,36.48
2022-08-19T18:13:58.258Z,36.29
2022-08-19T18:16:24.668Z,36.42
2022-08-19T18:18:51.054Z,36.40
2022-08-19T18:21:17.465Z,36.42
2022-08-19T18:23:45.738Z,36.41
2022-08-19T18:26:10.204Z,36.37
2022-08-19T18:28:36.564Z,36.83
2022-08-19T18:31:02.952Z,36.88
2022-08-19T18:33:29.339Z,37.10
2022-08-19T18:35:55.761Z,37.19
2022-08-19T18:38:22.138Z,37.30
2022-08-19T18:40:48.507Z,37.62
2022-08-19T18:43:14.863Z,38.55
2022-08-19T18:45:43.601Z,38.36
2022-08-19T18:48:07.691Z,38.74
2022-08-19T18:50:34.041Z,39.00
2022-08-19T18:53:00.399Z,39.61
2022-08-19T18:55:26.818Z,40.09
2022-08-19T18:57:53.385Z,40.13
2022-08-19T19:00:19.610Z,40.21
2022-08-19T19:02:46.085Z,40.33
2022-08-19T19:05:12.460Z,40.40
2022-08-19T19:07:38.836Z,40.47
2022-08-19T19:10:05.197Z,40.38
2022-08-19T19:12:31.579Z,40.78
2022-08-19T19:14:57.961Z,40.76
2022-08-19T19:17:24.379Z,40.81
2022-08-19T19:19:50.745Z,41.28
2022-08-19T19:22:17.101Z,41.52
2022-08-19T19:24:43.513Z,41.77
2022-08-19T19:27:09.847Z,41.96
2022-08-19T19:29:36.331Z,42.19
2022-08-19T19:32:02.691Z,42.13
2022-08-19T19:34:30.196Z,42.13
2022-08-19T19:36:55.450Z,42.21
2022-08-19T19:39:30.671Z,42.71
2022-08-19T19:41:48.299Z,42.67
2022-08-19T19:44:30.823Z,42.88
2022-08-19T19:46:41.153Z,43.12
2022-08-19T19:49:07.512Z,43.61
2022-08-19T19:51:37.666Z,43.37
2022-08-19T19:54:00.261Z,43.42
2022-08-19T19:56:26.645Z,43.56
2022-08-19T19:58:53.009Z,43.64
2022-08-19T20:01:21.171Z,43.61
2022-08-19T20:03:45.777Z,43.78
2022-08-19T20:06:12.136Z,44.24
2022-08-19T20:08:38.512Z,44.25
2022-08-19T20:11:04.876Z,44.75
2022-08-19T20:13:31.411Z,44.55
2022-08-19T20:15:57.844Z,45.30
2022-08-19T20:18:24.204Z,46.60
2022-08-19T20:20:50.703Z,47.51
2022-08-19T20:23:17.138Z,48.44
2022-08-19T20:25:43.540Z,48.17
2022-08-19T20:30:46.464Z,48.62
2022-08-19T20:33:11.528Z,48.50
2022-08-19T20:35:37.910Z,47.60
2022-08-19T20:38:04.342Z,47.85
2022-08-19T20:40:30.779Z,48.60
2022-08-19T20:42:57.140Z,49.03
2022-08-19T20:45:32.857Z,49.54
2022-08-19T20:47:49.932Z,50.18
2022-08-19T20:50:16.283Z,51.00
2022-08-19T20:52:42.654Z,51.35
2022-08-19T20:55:09.091Z,51.38
2022-08-19T20:57:35.452Z,51.59
2022-08-19T21:00:01.821Z,51.60
2022-08-19T21:02:28.224Z,51.98
2022-08-19T21:04:54.593Z,52.22
2022-08-19T21:07:20.962Z,52.84
2022-08-19T21:09:47.460Z,52.88
2022-08-19T21:12:13.848Z,52.50
2022-08-19T21:14:40.231Z,52.72
2022-08-19T21:17:06.601Z,52.66
2022-08-19T21:19:33.004Z,52.67
2022-08-19T21:21:59.363Z,52.29
2022-08-19T21:24:31.507Z,52.41
2022-08-19T21:26:52.145Z,52.69
2022-08-19T21:29:18.497Z,52.66
2022-08-19T21:31:44.859Z,52.67
2022-08-19T21:34:11.277Z,52.88
2022-08-19T21:36:37.706Z,53.07
2022-08-19T21:39:04.091Z,53.42
2022-08-19T21:41:30.492Z,53.82
2022-08-19T21:43:56.863Z,53.89
2022-08-19T21:46:23.231Z,54.10
2022-08-19T21:48:49.627Z,54.19
2022-08-19T21:51:16.042Z,53.45
2022-08-19T21:53:42.411Z,53.38
2022-08-19T21:56:08.810Z,53.01
2022-08-19T21:58:35.181Z,52.69
2022-08-19T22:01:01.653Z,52.36
2022-08-19T22:03:27.953Z,52.41
2022-08-19T22:05:56.799Z,52.45
2022-08-19T22:08:21.607Z,52.54
2022-08-19T22:10:47.999Z,52.78
2022-08-19T22:13:14.367Z,53.20
2022-08-19T22:15:40.766Z,53.55
2022-08-19T22:18:07.167Z,53.99
2022-08-19T22:20:33.587Z,54.17
2022-08-19T22:22:59.993Z,54.39
2022-08-19T22:25:31.810Z,54.36
2022-08-19T22:27:52.867Z,54.78
2022-08-19T22:30:19.253Z,54.87
2022-08-19T22:32:45.671Z,55.16
2022-08-19T22:35:12.057Z,55.23
2022-08-19T22:37:38.447Z,55.38
2022-08-19T22:40:05.584Z,55.55
2022-08-19T22:42:31.790Z,56.00
2022-08-19T22:44:57.569Z,55.82
2022-08-19T22:47:23.938Z,56.11
2022-08-19T22:49:50.384Z,55.85
2022-08-19T22:52:16.724Z,55.81
2022-08-19T22:54:43.083Z,55.96
2022-08-19T22:57:09.586Z,56.01
2022-08-19T22:59:35.952Z,56.42
2022-08-19T23:02:02.341Z,56.61
2022-08-19T23:04:28.734Z,56.88
2022-08-19T23:06:55.224Z,56.77
2022-08-19T23:09:23.321Z,56.74
2022-08-19T23:11:48.009Z,56.81
2022-08-19T23:14:14.448Z,57.08
2022-08-19T23:16:41.638Z,56.79
2022-08-19T23:19:07.287Z,57.07
2022-08-19T23:21:33.691Z,57.32
2022-08-19T23:24:00.090Z,57.30
2022-08-19T23:26:26.510Z,57.40
2022-08-19T23:28:52.954Z,57.52
2022-08-19T23:31:19.276Z,57.76
2022-08-19T23:33:51.500Z,57.60
2022-08-19T23:36:12.072Z,57.57
2022-08-19T23:38:38.478Z,57.72
2022-08-19T23:41:04.887Z,57.59
2022-08-19T23:43:31.321Z,57.61
2022-08-19T23:45:57.747Z,57.45
2022-08-19T23:48:24.113Z,57.80
2022-08-19T23:50:50.471Z,58.03
2022-08-19T23:53:16.941Z,58.33
2022-08-19T23:55:43.314Z,58.46
2022-08-19T23:58:09.872Z,58.36
